createdAt,value
2018-07-13T00:00:03.391Z,97.10
2018-07-13T00:02:31.324Z,97.20
2018-07-13T00:04:59.677Z,97.20
2018-07-13T00:07:28.019Z,97.40
2018-07-13T00:09:56.380Z,97.50
2018-07-13T00:12:24.672Z,97.60
2018-07-13T00:15:03.570Z,98.00
2018-07-13T00:17:31.855Z,97.80
2018-07-13T00:20:00.216Z,97.80
2018-07-13T00:22:28.492Z,97.80
2018-07-13T00:24:56.771Z,98.00
2018-07-13T00:27:25.104Z,98.10
2018-07-13T00:29:53.394Z,98.20
2018-07-13T00:32:21.722Z,98.20
2018-07-13T00:34:50.135Z,98.20
2018-07-13T00:37:18.698Z,98.30
2018-07-13T00:39:47.092Z,98.40
2018-07-13T00:42:15.457Z,98.30
2018-07-13T00:44:43.793Z,98.50
2018-07-13T00:47:12.117Z,98.60
2018-07-13T00:49:40.400Z,98.50
2018-07-13T00:52:08.719Z,98.60
2018-07-13T00:57:05.071Z,98.70
2018-07-13T00:59:33.394Z,98.80
2018-07-13T01:02:01.722Z,98.90
2018-07-13T01:04:30.026Z,99.00
2018-07-13T01:06:58.376Z,99.10
2018-07-13T01:09:26.740Z,99.10
2018-07-13T01:11:55.042Z,99.10
2018-07-13T01:14:23.395Z,99.00
2018-07-13T01:16:51.687Z,99.20
2018-07-13T01:19:20.019Z,99.10
2018-07-13T01:21:48.408Z,99.10
2018-07-13T01:24:16.786Z,99.20
2018-07-13T01:26:45.102Z,99.30
2018-07-13T01:31:41.399Z,99.70
2018-07-13T01:34:09.706Z,99.60
2018-07-13T01:36:38.000Z,99.60
2018-07-13T01:39:09.102Z,99.70
2018-07-13T01:41:37.413Z,99.80
2018-07-13T01:44:06.039Z,99.80
2018-07-13T01:46:34.375Z,99.70
2018-07-13T01:49:02.726Z,99.90
2018-07-13T01:51:31.094Z,99.90
2018-07-13T01:53:59.476Z,99.90
2018-07-13T01:56:27.785Z,99.90
2018-07-13T01:58:56.201Z,99.90
2018-07-13T02:01:24.511Z,99.90
2018-07-13T02:03:52.876Z,99.90
2018-07-13T02:06:21.163Z,99.90
2018-07-13T02:08:52.163Z,99.90
2018-07-13T02:11:20.580Z,99.90
2018-07-13T02:13:49.147Z,99.90
2018-07-13T02:16:17.477Z,99.90
2018-07-13T02:18:45.770Z,99.90
2018-07-13T02:21:14.058Z,99.90
2018-07-13T02:23:42.336Z,99.90
2018-07-13T02:26:10.675Z,99.90
2018-07-13T02:28:39.055Z,99.90
2018-07-13T02:31:07.471Z,99.90
2018-07-13T02:33:35.772Z,99.90
2018-07-13T02:36:04.098Z,99.90
2018-07-13T02:38:32.420Z,99.90
2018-07-13T02:41:00.739Z,99.90
2018-07-13T02:43:29.035Z,99.90
2018-07-13T02:45:57.314Z,99.90
2018-07-13T02:48:25.602Z,99.90
2018-07-13T02:50:53.928Z,99.90
2018-07-13T02:53:22.223Z,99.90
2018-07-13T02:55:50.572Z,99.90
2018-07-13T02:58:18.876Z,99.90
2018-07-13T03:00:47.165Z,99.90
2018-07-13T03:03:15.720Z,99.90
2018-07-13T03:05:44.066Z,99.90
2018-07-13T03:08:12.492Z,99.90
2018-07-13T03:10:40.801Z,99.90
2018-07-13T03:13:09.214Z,99.90
2018-07-13T03:15:37.490Z,99.90
2018-07-13T03:18:05.788Z,99.90
2018-07-13T03:20:34.077Z,99.90
2018-07-13T03:23:02.399Z,99.90
2018-07-13T03:25:30.736Z,99.90
2018-07-13T03:30:27.450Z,99.90
2018-07-13T03:32:55.731Z,99.90
2018-07-13T03:35:24.089Z,99.80
2018-07-13T03:37:52.406Z,99.80
2018-07-13T03:40:20.744Z,99.80
2018-07-13T03:42:49.092Z,99.90
2018-07-13T03:45:17.652Z,99.90
2018-07-13T03:47:46.011Z,99.90
2018-07-13T03:50:14.352Z,99.90
2018-07-13T03:52:42.604Z,99.90
2018-07-13T03:55:10.933Z,99.90
2018-07-13T03:57:39.240Z,99.90
2018-07-13T04:00:07.634Z,99.90
2018-07-13T04:02:35.917Z,99.90
2018-07-13T04:05:04.236Z,99.80
2018-07-13T04:07:32.524Z,99.60
2018-07-13T04:10:00.851Z,99.60
2018-07-13T04:12:29.189Z,99.70
2018-07-13T04:14:57.508Z,99.50
2018-07-13T04:17:25.899Z,99.40
2018-07-13T04:19:54.498Z,99.50
2018-07-13T04:22:22.819Z,99.70
2018-07-13T04:24:51.089Z,99.50
2018-07-13T04:27:19.455Z,99.50
2018-07-13T04:29:47.788Z,99.40
2018-07-13T04:32:16.100Z,99.30
2018-07-13T04:34:44.384Z,99.30
2018-07-13T04:37:12.672Z,99.20
2018-07-13T04:39:41.046Z,99.10
2018-07-13T04:42:09.813Z,99.10
2018-07-13T04:44:38.256Z,99.00
2018-07-13T04:47:06.531Z,99.20
2018-07-13T04:49:34.814Z,99.30
2018-07-13T04:52:03.259Z,99.20
2018-07-13T04:54:32.877Z,99.10
2018-07-13T04:57:01.305Z,98.90
2018-07-13T04:59:29.707Z,98.60
2018-07-13T05:01:58.131Z,98.70
2018-07-13T05:04:26.484Z,98.40
2018-07-13T05:06:55.767Z,98.30
2018-07-13T05:09:24.127Z,98.40
2018-07-13T05:11:52.458Z,98.30
2018-07-13T05:14:20.814Z,98.40
2018-07-13T05:16:49.238Z,98.30
2018-07-13T05:19:17.524Z,98.20
2018-07-13T05:21:45.880Z,98.40
2018-07-13T05:24:14.173Z,98.30
2018-07-13T05:26:42.711Z,98.30
2018-07-13T05:29:11.162Z,98.50
2018-07-13T05:31:39.856Z,98.50
2018-07-13T05:34:08.476Z,98.60
2018-07-13T05:36:36.844Z,98.60
2018-07-13T05:39:08.556Z,98.60
2018-07-13T05:41:37.511Z,98.40
2018-07-13T05:44:05.884Z,98.30
2018-07-13T05:46:34.368Z,97.90
2018-07-13T05:49:02.679Z,97.80
2018-07-13T05:51:31.084Z,97.20
2018-07-13T05:53:59.479Z,97.60
2018-07-13T05:56:27.905Z,97.70
2018-07-13T05:58:56.286Z,97.80
2018-07-13T06:01:24.674Z,97.80
2018-07-13T06:03:53.029Z,97.60
2018-07-13T06:06:21.358Z,97.20
2018-07-13T06:08:49.686Z,97.20
2018-07-13T06:11:17.985Z,97.00
2018-07-13T06:13:46.342Z,96.70
2018-07-13T06:16:14.760Z,96.80
2018-07-13T06:18:43.163Z,96.60
2018-07-13T06:21:11.502Z,96.50
2018-07-13T06:23:39.865Z,96.40
2018-07-13T06:26:08.271Z,96.90
2018-07-13T06:28:36.581Z,96.90
2018-07-13T06:31:04.873Z,97.10
2018-07-13T06:33:33.166Z,97.10
2018-07-13T06:36:01.489Z,96.80
2018-07-13T06:38:30.316Z,96.50
2018-07-13T06:40:58.697Z,96.50
2018-07-13T06:43:27.018Z,96.20
2018-07-13T06:45:55.350Z,96.20
2018-07-13T06:48:23.660Z,95.80
2018-07-13T06:50:51.979Z,95.60
2018-07-13T06:53:20.366Z,95.40
2018-07-13T06:55:50.313Z,95.90
2018-07-13T06:58:30.509Z,95.40
2018-07-13T07:01:04.708Z,95.50
2018-07-13T07:03:34.576Z,95.40
2018-07-13T07:06:08.410Z,95.50
2018-07-13T07:08:38.202Z,95.50
2018-07-13T07:11:06.580Z,95.40
2018-07-13T07:13:36.976Z,95.60
2018-07-13T07:16:05.598Z,95.70
2018-07-13T07:18:34.012Z,95.90
2018-07-13T07:21:02.308Z,95.40
2018-07-13T07:23:31.262Z,94.90
2018-07-13T07:26:00.440Z,94.70
2018-07-13T07:28:28.842Z,94.50
2018-07-13T07:30:57.833Z,94.50
2018-07-13T07:33:26.188Z,94.20
2018-07-13T07:35:54.609Z,94.20
2018-07-13T07:38:22.963Z,94.00
2018-07-13T07:40:51.259Z,93.70
2018-07-13T07:43:20.121Z,93.70
2018-07-13T07:45:48.461Z,93.60
2018-07-13T07:48:16.807Z,93.50
2018-07-13T07:50:45.129Z,93.00
2018-07-13T07:53:13.419Z,93.10
2018-07-13T07:55:41.758Z,93.00
2018-07-13T07:58:10.114Z,92.80
2018-07-13T08:00:38.922Z,93.40
2018-07-13T08:03:07.280Z,92.90
2018-07-13T08:05:35.682Z,92.60
2018-07-13T08:08:04.114Z,92.70
2018-07-13T08:10:32.401Z,92.60
2018-07-13T08:13:01.089Z,92.50
2018-07-13T08:15:29.448Z,92.80
2018-07-13T08:17:57.858Z,92.90
2018-07-13T08:20:29.091Z,93.10
2018-07-13T08:23:01.077Z,93.10
2018-07-13T08:25:30.198Z,92.90
2018-07-13T08:28:00.676Z,92.80
2018-07-13T08:30:38.375Z,92.60
2018-07-13T08:33:06.714Z,92.60
2018-07-13T08:35:35.052Z,92.50
2018-07-13T08:38:03.495Z,92.70
2018-07-13T08:40:31.851Z,92.50
2018-07-13T08:43:00.160Z,92.30
2018-07-13T08:45:28.485Z,92.60
2018-07-13T08:47:57.031Z,92.10
2018-07-13T08:50:25.404Z,91.90
2018-07-13T08:52:54.077Z,92.20
2018-07-13T08:55:22.415Z,92.00
2018-07-13T08:57:50.749Z,91.90
2018-07-13T09:00:19.431Z,91.80
2018-07-13T09:02:47.816Z,91.30
2018-07-13T09:05:16.142Z,91.30
2018-07-13T09:07:44.603Z,91.10
2018-07-13T09:10:13.664Z,91.20
2018-07-13T09:12:42.862Z,91.10
2018-07-13T09:15:12.818Z,90.60
2018-07-13T09:17:41.807Z,90.30
2018-07-13T09:20:11.820Z,90.10
2018-07-13T09:22:41.351Z,90.10
2018-07-13T09:25:10.368Z,90.20
2018-07-13T09:27:38.990Z,90.40
2018-07-13T09:30:07.872Z,90.40
2018-07-13T09:32:36.241Z,90.30
2018-07-13T09:35:04.656Z,90.40
2018-07-13T09:37:33.631Z,90.20
2018-07-13T09:40:02.001Z,90.10
2018-07-13T09:42:30.328Z,89.60
2018-07-13T09:44:58.711Z,87.60
2018-07-13T09:47:34.854Z,87.20
2018-07-13T09:50:04.668Z,86.70
2018-07-13T09:52:32.999Z,86.70
2018-07-13T09:55:01.335Z,86.40
2018-07-13T09:57:29.590Z,86.40
2018-07-13T09:59:57.855Z,86.40
2018-07-13T10:02:26.136Z,86.10
2018-07-13T10:04:54.536Z,85.40
2018-07-13T10:07:22.914Z,84.70
2018-07-13T10:09:51.252Z,83.80
2018-07-13T10:12:19.681Z,84.40
2018-07-13T10:14:47.937Z,84.00
2018-07-13T10:17:16.216Z,83.70
2018-07-13T10:19:44.606Z,84.30
2018-07-13T10:22:14.829Z,82.90
2018-07-13T10:24:43.871Z,82.50
2018-07-13T10:27:13.725Z,83.30
2018-07-13T10:29:46.468Z,82.10
2018-07-13T10:32:14.803Z,82.00
2018-07-13T10:34:43.707Z,81.90
2018-07-13T10:37:12.072Z,82.10
2018-07-13T10:39:40.343Z,81.10
2018-07-13T10:42:08.682Z,81.40
2018-07-13T10:44:36.998Z,81.20
2018-07-13T10:47:05.275Z,81.30
2018-07-13T10:49:33.585Z,81.30
2018-07-13T10:52:01.944Z,79.80
2018-07-13T10:54:30.265Z,79.40
2018-07-13T10:56:58.656Z,79.50
2018-07-13T10:59:27.011Z,79.50
2018-07-13T11:01:55.376Z,79.00
2018-07-13T11:04:23.651Z,78.60
2018-07-13T11:06:51.950Z,79.80
2018-07-13T11:09:20.297Z,79.20
2018-07-13T11:11:48.577Z,78.80
2018-07-13T11:14:16.874Z,79.00
2018-07-13T11:16:45.176Z,79.10
2018-07-13T11:19:13.424Z,78.50
2018-07-13T11:21:41.781Z,77.40
2018-07-13T11:24:10.094Z,77.70
2018-07-13T11:26:38.390Z,77.10
2018-07-13T11:29:06.802Z,77.30
2018-07-13T11:31:35.229Z,75.60
2018-07-13T11:34:03.549Z,75.50
2018-07-13T11:36:31.841Z,75.50
2018-07-13T11:39:00.124Z,75.70
2018-07-13T11:41:28.447Z,75.50
2018-07-13T11:43:56.783Z,74.80
2018-07-13T11:46:25.052Z,74.70
2018-07-13T11:48:53.352Z,75.40
2018-07-13T11:51:21.647Z,74.90
2018-07-13T11:53:50.230Z,75.20
2018-07-13T11:56:18.536Z,75.50
2018-07-13T11:58:46.831Z,75.80
2018-07-13T12:01:15.178Z,75.30
2018-07-13T12:06:11.539Z,73.70
2018-07-13T12:08:39.870Z,73.60
2018-07-13T12:11:08.313Z,73.70
2018-07-13T12:13:36.607Z,73.30
2018-07-13T12:16:04.916Z,71.90
2018-07-13T12:18:33.164Z,71.90
2018-07-13T12:21:01.538Z,71.60
2018-07-13T12:23:29.823Z,71.60
2018-07-13T12:25:58.142Z,71.80
2018-07-13T12:28:26.400Z,71.70
2018-07-13T12:30:54.683Z,71.90
2018-07-13T12:33:22.944Z,71.20
2018-07-13T12:35:52.121Z,72.00
2018-07-13T12:38:20.384Z,71.80
2018-07-13T12:40:48.689Z,71.80
2018-07-13T12:43:17.060Z,70.90
2018-07-13T12:45:45.364Z,70.10
2018-07-13T12:48:13.801Z,70.00
2018-07-13T12:50:42.167Z,70.10
2018-07-13T12:53:10.525Z,70.40
2018-07-13T12:55:38.836Z,69.60
2018-07-13T12:58:07.115Z,69.00
2018-07-13T13:00:35.464Z,68.90
2018-07-13T13:03:03.763Z,69.10
2018-07-13T13:05:32.144Z,68.90
2018-07-13T13:08:00.446Z,69.00
2018-07-13T13:10:28.729Z,68.10
2018-07-13T13:12:57.093Z,68.50
2018-07-13T13:15:25.549Z,69.20
2018-07-13T13:17:53.816Z,67.90
2018-07-13T13:20:22.132Z,68.00
2018-07-13T13:23:03.592Z,67.20
2018-07-13T13:25:32.089Z,68.00
2018-07-13T13:28:00.387Z,69.00
2018-07-13T13:30:28.674Z,69.00
2018-07-13T13:32:56.989Z,66.80
2018-07-13T13:35:25.413Z,68.30
2018-07-13T13:37:55.957Z,66.70
2018-07-13T13:40:24.299Z,66.10
2018-07-13T13:42:52.796Z,66.10
2018-07-13T13:45:21.721Z,65.80
2018-07-13T13:50:18.215Z,65.80
2018-07-13T13:52:46.555Z,65.60
2018-07-13T13:55:15.076Z,64.80
2018-07-13T13:57:43.412Z,64.40
2018-07-13T14:00:11.702Z,63.80
2018-07-13T14:02:40.034Z,62.80
2018-07-13T14:05:08.391Z,62.70
2018-07-13T14:07:36.632Z,62.90
2018-07-13T14:10:05.052Z,63.20
2018-07-13T14:12:33.312Z,64.10
2018-07-13T14:15:01.769Z,64.80
2018-07-13T14:17:30.073Z,64.90
2018-07-13T14:19:58.911Z,65.80
2018-07-13T14:24:57.253Z,67.70
2018-07-13T14:27:25.555Z,68.10
2018-07-13T14:29:53.950Z,68.30
2018-07-13T14:32:22.222Z,68.30
2018-07-13T14:34:50.554Z,66.50
2018-07-13T14:37:18.860Z,66.00
2018-07-13T14:39:47.225Z,66.90
2018-07-13T14:42:15.530Z,65.50
2018-07-13T14:44:43.836Z,64.50
2018-07-13T14:47:12.200Z,64.00
2018-07-13T14:49:40.500Z,63.10
2018-07-13T14:52:08.884Z,62.30
2018-07-13T14:54:37.202Z,62.00
2018-07-13T14:57:05.554Z,63.50
2018-07-13T14:59:33.994Z,63.80
2018-07-13T15:02:02.413Z,64.00
2018-07-13T15:04:30.719Z,63.40
2018-07-13T15:06:59.008Z,62.90
2018-07-13T15:09:27.346Z,63.30
2018-07-13T15:11:55.732Z,63.80
2018-07-13T15:14:24.034Z,63.20
2018-07-13T15:16:52.383Z,62.80
2018-07-13T15:19:20.676Z,62.70
2018-07-13T15:21:49.015Z,62.60
2018-07-13T15:24:17.344Z,63.00
2018-07-13T15:26:45.632Z,62.50
2018-07-13T15:29:13.944Z,62.60
2018-07-13T15:31:42.278Z,61.30
2018-07-13T15:34:10.560Z,61.30
2018-07-13T15:36:39.436Z,61.60
2018-07-13T15:39:07.971Z,61.60
2018-07-13T15:41:37.204Z,60.60
2018-07-13T15:44:05.565Z,59.40
2018-07-13T15:46:33.853Z,60.40
2018-07-13T15:49:02.280Z,60.90
2018-07-13T15:51:30.589Z,61.60
2018-07-13T15:53:58.878Z,62.10
2018-07-13T15:56:27.192Z,61.60
2018-07-13T15:58:55.517Z,62.00
2018-07-13T16:01:23.895Z,62.80
2018-07-13T16:03:52.176Z,63.10
2018-07-13T16:06:20.494Z,63.70
2018-07-13T16:08:48.752Z,64.40
2018-07-13T16:11:17.057Z,65.60
2018-07-13T16:13:45.386Z,66.10
2018-07-13T16:16:13.753Z,67.00
2018-07-13T16:18:42.101Z,66.50
2018-07-13T16:21:10.392Z,67.60
2018-07-13T16:23:38.658Z,67.00
2018-07-13T16:28:35.021Z,65.20
2018-07-13T16:31:03.444Z,63.70
2018-07-13T16:33:31.697Z,63.30
2018-07-13T16:36:00.044Z,61.70
2018-07-13T16:38:28.309Z,61.70
2018-07-13T16:40:56.593Z,61.20
2018-07-13T16:43:24.951Z,61.10
2018-07-13T16:45:53.339Z,61.20
2018-07-13T16:50:49.911Z,62.90
2018-07-13T16:55:46.152Z,62.90
2018-07-13T16:58:14.416Z,62.60
2018-07-13T17:00:42.762Z,62.90
2018-07-13T17:03:11.033Z,63.50
2018-07-13T17:05:39.343Z,63.10
2018-07-13T17:08:07.673Z,62.60
2018-07-13T17:10:35.926Z,63.30
2018-07-13T17:13:04.283Z,63.20
2018-07-13T17:15:32.556Z,62.80
2018-07-13T17:18:00.884Z,62.70
2018-07-13T17:20:29.511Z,62.40
2018-07-13T17:22:57.707Z,61.40
2018-07-13T17:25:26.025Z,62.00
2018-07-13T17:27:54.332Z,62.20
2018-07-13T17:30:22.632Z,61.60
2018-07-13T17:32:50.963Z,61.90
2018-07-13T17:35:19.291Z,61.70
2018-07-13T17:37:47.583Z,61.80
2018-07-13T17:40:16.107Z,61.50
2018-07-13T17:42:44.417Z,63.10
2018-07-13T17:47:40.872Z,62.70
2018-07-13T17:50:09.149Z,62.90
2018-07-13T17:52:37.448Z,62.50
2018-07-13T17:55:05.791Z,61.80
2018-07-13T18:00:02.173Z,61.60
2018-07-13T18:02:31.155Z,60.90
2018-07-13T18:04:59.505Z,61.50
2018-07-13T18:10:08.475Z,61.70
2018-07-13T18:12:36.772Z,61.90
2018-07-13T18:15:05.907Z,63.00
2018-07-13T18:17:34.239Z,62.10
2018-07-13T18:20:02.631Z,62.90
2018-07-13T18:22:30.908Z,62.50
2018-07-13T18:24:59.233Z,63.30
2018-07-13T18:27:27.574Z,63.30
2018-07-13T18:29:55.908Z,64.00
2018-07-13T18:32:24.271Z,64.50
2018-07-13T18:34:52.789Z,64.30
2018-07-13T18:37:21.275Z,63.20
2018-07-13T18:39:49.840Z,62.40
2018-07-13T18:42:18.132Z,63.00
2018-07-13T18:44:46.428Z,62.70
2018-07-13T18:47:14.746Z,61.70
2018-07-13T18:49:43.049Z,62.90
2018-07-13T18:52:12.487Z,62.70
2018-07-13T18:54:40.835Z,62.90
2018-07-13T18:57:09.183Z,64.20
2018-07-13T18:59:37.543Z,64.70
2018-07-13T19:02:06.354Z,65.40
2018-07-13T19:04:34.816Z,66.60
2018-07-13T19:07:03.128Z,67.60
2018-07-13T19:09:31.507Z,69.00
2018-07-13T19:11:59.841Z,69.70
2018-07-13T19:14:28.412Z,70.20
2018-07-13T19:16:56.792Z,71.00
2018-07-13T19:19:25.123Z,71.70
2018-07-13T19:21:53.445Z,72.30
2018-07-13T19:24:21.764Z,72.50
2018-07-13T19:26:50.110Z,73.00
2018-07-13T19:29:18.573Z,73.30
2018-07-13T19:31:48.059Z,74.00
2018-07-13T19:34:16.460Z,74.40
2018-07-13T19:36:44.780Z,75.60
2018-07-13T19:39:13.301Z,75.90
2018-07-13T19:41:41.634Z,76.00
2018-07-13T19:44:09.931Z,77.10
2018-07-13T19:46:38.295Z,77.20
2018-07-13T19:49:06.512Z,77.50
2018-07-13T19:51:35.006Z,78.40
2018-07-13T19:54:03.277Z,78.50
2018-07-13T19:56:31.579Z,78.60
2018-07-13T19:58:59.869Z,79.50
2018-07-13T20:01:28.200Z,79.60
2018-07-13T20:03:56.527Z,80.70
2018-07-13T20:06:24.912Z,80.30
2018-07-13T20:08:53.186Z,80.70
2018-07-13T20:11:21.524Z,80.90
2018-07-13T20:13:49.816Z,81.20
2018-07-13T20:16:18.191Z,81.60
2018-07-13T20:18:46.520Z,82.10
2018-07-13T20:21:14.887Z,82.30
2018-07-13T20:23:43.189Z,82.70
2018-07-13T20:26:11.529Z,82.80
2018-07-13T20:28:39.878Z,83.10
2018-07-13T20:31:08.312Z,83.40
2018-07-13T20:33:36.756Z,83.70
2018-07-13T20:38:33.104Z,84.30
2018-07-13T20:41:01.456Z,84.50
2018-07-13T20:43:29.896Z,84.80
2018-07-13T20:45:58.253Z,85.10
2018-07-13T20:48:26.600Z,85.40
2018-07-13T20:50:54.917Z,85.90
2018-07-13T20:53:23.229Z,85.90
2018-07-13T20:55:51.558Z,86.10
2018-07-13T21:00:47.933Z,86.50
2018-07-13T21:03:16.414Z,86.50
2018-07-13T21:05:44.764Z,86.80
2018-07-13T21:08:14.088Z,87.30
2018-07-13T21:10:42.569Z,87.30
2018-07-13T21:13:10.912Z,87.60
2018-07-13T21:15:39.233Z,87.90
2018-07-13T21:18:07.496Z,88.40
2018-07-13T21:20:35.983Z,88.60
2018-07-13T21:23:04.320Z,88.90
2018-07-13T21:25:32.643Z,89.30
2018-07-13T21:28:00.928Z,89.50
2018-07-13T21:30:29.251Z,90.00
2018-07-13T21:32:57.545Z,90.20
2018-07-13T21:35:25.913Z,90.30
2018-07-13T21:37:54.331Z,90.40
2018-07-13T21:40:22.668Z,90.50
2018-07-13T21:42:51.037Z,90.60
2018-07-13T21:45:19.442Z,90.70
2018-07-13T21:47:47.812Z,90.70
2018-07-13T21:50:16.072Z,90.80
2018-07-13T21:52:44.332Z,90.90
2018-07-13T21:55:12.643Z,91.00
2018-07-13T21:57:40.941Z,91.00
2018-07-13T22:00:09.251Z,91.10
2018-07-13T22:02:37.555Z,91.10
2018-07-13T22:05:05.949Z,91.20
2018-07-13T22:07:34.216Z,91.30
2018-07-13T22:10:02.509Z,91.40
2018-07-13T22:12:30.844Z,91.50
2018-07-13T22:14:59.327Z,91.50
2018-07-13T22:17:27.633Z,91.60
2018-07-13T22:22:26.474Z,91.80
2018-07-13T22:24:54.794Z,92.00
2018-07-13T22:27:23.102Z,92.00
2018-07-13T22:29:51.406Z,92.30
2018-07-13T22:32:19.731Z,92.20
2018-07-13T22:34:48.037Z,92.30
2018-07-13T22:37:16.387Z,92.40
2018-07-13T22:39:44.712Z,92.50
2018-07-13T22:42:12.990Z,92.50
2018-07-13T22:44:41.310Z,92.70
2018-07-13T22:47:09.589Z,92.80
2018-07-13T22:49:37.944Z,92.90
2018-07-13T22:52:06.365Z,92.90
2018-07-13T22:54:34.653Z,93.40
2018-07-13T22:57:03.037Z,93.20
2018-07-13T22:59:31.355Z,93.30
2018-07-13T23:01:59.667Z,93.40
2018-07-13T23:04:27.985Z,93.50
2018-07-13T23:06:56.485Z,93.60
2018-07-13T23:09:24.772Z,93.70
2018-07-13T23:11:53.102Z,93.70
2018-07-13T23:14:21.439Z,93.90
2018-07-13T23:16:49.931Z,94.00
2018-07-13T23:19:18.214Z,94.00
2018-07-13T23:21:46.562Z,94.10
2018-07-13T23:24:14.925Z,94.20
2018-07-13T23:26:43.229Z,94.30
2018-07-13T23:29:11.520Z,94.50
2018-07-13T23:31:40.003Z,94.60
2018-07-13T23:34:08.302Z,94.80
2018-07-13T23:36:36.653Z,94.90
2018-07-13T23:39:05.654Z,94.90
2018-07-13T23:41:33.992Z,95.00
2018-07-13T23:44:02.269Z,95.20
2018-07-13T23:46:30.584Z,95.30
2018-07-13T23:48:58.930Z,95.40
2018-07-13T23:51:27.202Z,95.50
2018-07-13T23:53:55.510Z,95.50
2018-07-13T23:56:23.865Z,95.60
2018-07-13T23:58:52.239Z,95.60
